createdAt,value
2022-11-21T00:01:19.156Z,100033.03
2022-11-21T00:03:47.634Z,100037.88
2022-11-21T00:06:15.864Z,100042.44
2022-11-21T00:08:43.933Z,100039.97
2022-11-21T00:11:13.481Z,100052.56
2022-11-21T00:13:41.843Z,100036.38
2022-11-21T00:16:11.981Z,100041.81
2022-11-21T00:18:40.476Z,100042.97
2022-11-21T00:21:10.028Z,100049.38
2022-11-21T00:23:37.883Z,100052.34
2022-11-21T00:26:06.980Z,100058.63
2022-11-21T00:28:36.943Z,100057.78
2022-11-21T00:31:05.987Z,100060.59
2022-11-21T00:33:39.145Z,100055.19
2022-11-21T00:36:08.851Z,100069.78
2022-11-21T00:38:36.677Z,100066.19
2022-11-21T00:41:04.757Z,100063.47
2022-11-21T00:43:32.527Z,100067.19
2022-11-21T00:46:02.922Z,100077.94
2022-11-21T00:48:32.252Z,100075.34
2022-11-21T00:51:01.442Z,100078.03
2022-11-21T00:53:30.255Z,100073.72
2022-11-21T00:55:58.371Z,100078.28
2022-11-21T00:58:26.260Z,100082.84
2022-11-21T01:00:54.204Z,100081.97
2022-11-21T01:03:23.490Z,100080.03
2022-11-21T01:05:51.587Z,100081.25
2022-11-21T01:08:19.445Z,100075.97
2022-11-21T01:10:47.198Z,100075.22
2022-11-21T01:13:14.959Z,100075.31
2022-11-21T01:15:42.740Z,100075.44
2022-11-21T01:18:10.923Z,100074.69
2022-11-21T01:20:41.501Z,100077.41
2022-11-21T01:23:09.391Z,100080.28
2022-11-21T01:25:37.712Z,100085.72
2022-11-21T01:28:05.819Z,100089.41
2022-11-21T01:30:33.573Z,100086.81
2022-11-21T01:33:01.367Z,100096.94
2022-11-21T01:35:29.587Z,100089.66
2022-11-21T01:37:58.790Z,100094.09
2022-11-21T01:40:26.944Z,100097.03
2022-11-21T01:43:06.126Z,100100.63
2022-11-21T01:45:55.517Z,100101.88
2022-11-21T01:48:28.671Z,100101.00
2022-11-21T01:51:00.370Z,100102.84
2022-11-21T01:53:29.569Z,100098.28
2022-11-21T01:55:57.430Z,100092.97
2022-11-21T01:58:26.470Z,100095.69
2022-11-21T02:00:54.797Z,100099.38
2022-11-21T02:03:28.192Z,100100.25
2022-11-21T02:05:57.172Z,100103.97
2022-11-21T02:08:27.479Z,100103.97
2022-11-21T02:11:07.690Z,100100.38
2022-11-21T02:13:35.475Z,100099.66
2022-11-21T02:16:03.629Z,100098.63
2022-11-21T02:18:31.461Z,100100.53
2022-11-21T02:21:08.209Z,100090.50
2022-11-21T02:23:42.971Z,100087.78
2022-11-21T02:26:13.014Z,100096.94
2022-11-21T02:28:41.036Z,100093.47
2022-11-21T02:31:08.865Z,100099.78
2022-11-21T02:33:36.690Z,100102.50
2022-11-21T02:36:05.289Z,100104.34
2022-11-21T02:38:35.968Z,100103.34
2022-11-21T02:41:10.807Z,100106.94
2022-11-21T02:43:45.897Z,100112.38
2022-11-21T02:46:13.783Z,100106.19
2022-11-21T02:48:41.612Z,100110.63
2022-11-21T02:51:10.449Z,100109.75
2022-11-21T02:53:38.260Z,100102.59
2022-11-21T02:56:06.192Z,100099.78
2022-11-21T02:58:34.202Z,100102.50
2022-11-21T03:01:03.437Z,100099.78
2022-11-21T03:03:31.246Z,100102.59
2022-11-21T03:05:59.100Z,100104.22
2022-11-21T03:08:26.950Z,100102.50
2022-11-21T03:10:54.757Z,100110.63
2022-11-21T03:13:22.514Z,100100.75
2022-11-21T03:15:50.335Z,100090.88
2022-11-21T03:18:19.401Z,100103.34
2022-11-21T03:20:47.227Z,100096.19
2022-11-21T03:23:14.991Z,100097.16
2022-11-21T03:25:42.820Z,100103.47
2022-11-21T03:28:10.666Z,100098.91
2022-11-21T03:30:38.455Z,100100.75
2022-11-21T03:33:06.303Z,100103.47
2022-11-21T03:35:35.475Z,100102.50
2022-11-21T03:38:03.242Z,100109.88
2022-11-21T03:40:31.023Z,100110.75
2022-11-21T03:42:58.834Z,100108.91
2022-11-21T03:45:26.667Z,100108.91
2022-11-21T03:47:54.429Z,100110.75
2022-11-21T03:50:22.234Z,100110.75
2022-11-21T03:52:51.424Z,100110.63
2022-11-21T03:55:19.340Z,100108.16
2022-11-21T03:57:47.503Z,100121.59
2022-11-21T04:00:16.882Z,100119.75
2022-11-21T04:02:44.695Z,100113.59
2022-11-21T04:05:12.629Z,100109.00
2022-11-21T04:07:40.520Z,100109.88
2022-11-21T04:10:10.785Z,100108.91
2022-11-21T04:12:38.673Z,100110.88
2022-11-21T04:15:13.220Z,100115.44
2022-11-21T04:17:41.681Z,100114.69
2022-11-21T04:20:10.558Z,100121.84
2022-11-21T04:22:38.394Z,100124.69
2022-11-21T04:25:07.313Z,100119.28
2022-11-21T04:27:36.688Z,100112.97
2022-11-21T04:30:05.137Z,100122.09
2022-11-21T04:32:32.930Z,100123.94
2022-11-21T04:35:00.666Z,100121.22
2022-11-21T04:37:28.456Z,100114.06
2022-11-21T04:39:56.444Z,100120.47
2022-11-21T04:42:24.325Z,100119.63
2022-11-21T04:44:53.540Z,100120.47
2022-11-21T04:47:21.483Z,100113.31
2022-11-21T04:49:49.252Z,100108.88
2022-11-21T04:52:17.173Z,100105.28
2022-11-21T04:54:44.936Z,100107.13
2022-11-21T04:57:12.649Z,100104.44
2022-11-21T04:59:40.405Z,100101.72
2022-11-21T05:02:09.949Z,100110.59
2022-11-21T05:04:37.932Z,100104.44
2022-11-21T05:07:05.847Z,100114.41
2022-11-21T05:09:33.632Z,100105.28
2022-11-21T05:12:18.840Z,100098.13
2022-11-21T05:14:46.839Z,100103.56
2022-11-21T05:17:16.124Z,100096.16
2022-11-21T05:19:43.912Z,100091.72
2022-11-21T05:22:12.303Z,100090.84
2022-11-21T05:24:40.608Z,100092.69
2022-11-21T05:27:08.447Z,100089.13
2022-11-21T05:29:36.244Z,100089.13
2022-11-21T05:32:04.103Z,100094.69
2022-11-21T05:34:33.390Z,100088.28
2022-11-21T05:37:01.221Z,100086.56
2022-11-21T05:39:29.004Z,100085.69
2022-11-21T05:42:01.454Z,100083.84
2022-11-21T05:44:30.873Z,100085.81
2022-11-21T05:46:59.200Z,100092.97
2022-11-21T05:49:27.127Z,100087.66
2022-11-21T05:51:56.640Z,100094.81
2022-11-21T05:54:24.587Z,100089.50
2022-11-21T05:56:52.959Z,100078.75
2022-11-21T05:59:20.846Z,100086.91
2022-11-21T06:02:05.970Z,100087.75
2022-11-21T06:04:34.174Z,100087.88
2022-11-21T06:07:05.904Z,100086.03
2022-11-21T06:09:33.834Z,100088.03
2022-11-21T06:12:01.718Z,100085.31
2022-11-21T06:14:29.770Z,100075.28
2022-11-21T06:16:57.718Z,100075.28
2022-11-21T06:19:25.504Z,100082.59
2022-11-21T06:21:53.295Z,100075.44
2022-11-21T06:24:22.597Z,100076.16
2022-11-21T06:26:50.349Z,100074.56
2022-11-21T06:29:18.235Z,100069.16
2022-11-21T06:31:45.998Z,100071.00
2022-11-21T06:34:13.795Z,100072.84
2022-11-21T06:36:41.528Z,100067.41
2022-11-21T06:39:09.389Z,100075.66
2022-11-21T06:41:38.537Z,100071.00
2022-11-21T06:44:06.623Z,100068.28
2022-11-21T06:46:34.365Z,100069.25
2022-11-21T06:49:02.384Z,100072.84
2022-11-21T06:51:30.224Z,100076.41
2022-11-21T06:53:59.890Z,100071.88
2022-11-21T06:56:29.562Z,100071.88
2022-11-21T06:59:00.336Z,100073.72
2022-11-21T07:01:28.906Z,100074.56
2022-11-21T07:03:56.834Z,100074.69
2022-11-21T07:06:25.268Z,100074.56
2022-11-21T07:09:25.418Z,100074.56
2022-11-21T07:11:43.163Z,100074.69
2022-11-21T07:14:11.648Z,100070.00
2022-11-21T07:16:39.599Z,100071.88
2022-11-21T07:19:07.404Z,100070.00
2022-11-21T07:21:35.612Z,100070.00
2022-11-21T07:24:03.340Z,100067.28
2022-11-21T07:26:31.205Z,100063.72
2022-11-21T07:28:59.678Z,100065.31
2022-11-21T07:31:28.867Z,100055.47
2022-11-21T07:33:56.669Z,100053.72
2022-11-21T07:36:24.469Z,100058.19
2022-11-21T07:38:52.196Z,100058.19
2022-11-21T07:41:20.037Z,100059.88
2022-11-21T07:44:01.240Z,100051.72
2022-11-21T07:46:46.467Z,100058.88
2022-11-21T07:49:14.926Z,100060.03
2022-11-21T07:51:52.283Z,100063.47
2022-11-21T07:54:23.256Z,100066.91
2022-11-21T07:56:51.637Z,100056.94
2022-11-21T07:59:19.943Z,100055.84
2022-11-21T08:01:49.884Z,100054.69
2022-11-21T08:04:17.797Z,100048.28
2022-11-21T08:06:45.901Z,100053.59
2022-11-21T08:09:13.931Z,100047.06
2022-11-21T08:11:43.810Z,100040.53
2022-11-21T08:14:12.152Z,100031.38
2022-11-21T08:16:40.113Z,100023.97
2022-11-21T08:19:10.037Z,100017.44
2022-11-21T08:21:38.135Z,100017.44
2022-11-21T08:24:10.449Z,100028.03
2022-11-21T08:26:38.344Z,100039.94
2022-11-21T08:29:06.282Z,100042.38
2022-11-21T08:31:34.295Z,100044.97
2022-11-21T08:34:02.286Z,100035.84
2022-11-21T08:36:31.828Z,100035.59
2022-11-21T08:38:59.590Z,100033.72
2022-11-21T08:41:45.341Z,100029.03
2022-11-21T08:44:16.243Z,100034.47
2022-11-21T08:46:49.325Z,100030.75
2022-11-21T08:49:17.044Z,100030.66
2022-11-21T08:51:49.333Z,100037.94
2022-11-21T08:54:19.869Z,100031.50
2022-11-21T08:56:47.980Z,100023.97
2022-11-21T08:59:17.490Z,100022.97
2022-11-21T09:01:45.830Z,100026.44
2022-11-21T09:04:14.281Z,100023.72
2022-11-21T09:06:42.268Z,100021.75
2022-11-21T09:09:13.023Z,100027.06
2022-11-21T09:11:41.722Z,100019.78
2022-11-21T09:14:27.617Z,100016.03
2022-11-21T09:17:12.975Z,100011.47
2022-11-21T09:19:40.865Z,100004.19
2022-11-21T09:22:08.751Z,100004.06
2022-11-21T09:24:38.070Z,99995.69
2022-11-21T09:27:06.009Z,99992.09
2022-11-21T09:29:33.924Z,99986.56
2022-11-21T09:32:01.825Z,99991.72
2022-11-21T09:34:31.704Z,99995.16
2022-11-21T09:36:59.734Z,99989.72
2022-11-21T09:39:27.926Z,99989.50
2022-11-21T09:42:09.202Z,99983.66
2022-11-21T09:44:51.823Z,99997.13
2022-11-21T09:47:29.415Z,99980.69
2022-11-21T09:50:01.020Z,99987.59
2022-11-21T09:52:37.087Z,99991.78
2022-11-21T09:55:08.769Z,99985.22
2022-11-21T09:57:38.109Z,99976.81
2022-11-21T10:00:16.711Z,99975.69
2022-11-21T10:02:44.611Z,99971.13
2022-11-21T10:05:15.695Z,99969.13
2022-11-21T10:07:47.212Z,99967.16
2022-11-21T10:10:28.823Z,99964.19
2022-11-21T10:13:11.846Z,99958.63
2022-11-21T10:15:55.873Z,99954.03
2022-11-21T10:18:56.811Z,99962.78
2022-11-21T10:21:45.185Z,99959.94
2022-11-21T10:24:30.778Z,99952.53
2022-11-21T10:27:02.147Z,99948.81
2022-11-21T10:29:36.376Z,99940.50
2022-11-21T10:32:12.530Z,99933.09
2022-11-21T10:34:40.478Z,99928.50
2022-11-21T10:37:16.574Z,99926.53
2022-11-21T10:39:48.147Z,99929.13
2022-11-21T10:42:29.959Z,99925.41
2022-11-21T10:45:19.475Z,99914.66
2022-11-21T10:47:49.241Z,99918.13
2022-11-21T10:50:40.399Z,99902.38
2022-11-21T10:53:34.812Z,99896.94
2022-11-21T10:56:05.959Z,99897.81
2022-11-21T10:58:45.472Z,99904.88
2022-11-21T11:01:30.191Z,99900.16
2022-11-21T11:04:52.462Z,99890.13
2022-11-21T11:07:26.029Z,99886.56
2022-11-21T11:13:58.449Z,99868.25
2022-11-21T11:16:35.945Z,99861.56
2022-11-21T11:19:57.337Z,99855.84
2022-11-21T11:22:29.079Z,99848.28
2022-11-21T11:25:00.420Z,99849.00
2022-11-21T11:27:29.439Z,99835.13
2022-11-21T11:29:57.267Z,99829.56
2022-11-21T11:32:26.878Z,99823.72
2022-11-21T11:35:01.036Z,99827.88
2022-11-21T11:37:40.348Z,99811.41
2022-11-21T11:40:19.944Z,99805.84
2022-11-21T11:43:32.139Z,99803.97
2022-11-21T11:46:28.308Z,99803.00
2022-11-21T11:49:21.886Z,99799.25
2022-11-21T11:51:54.523Z,99807.13
2022-11-21T11:54:27.736Z,99793.53
2022-11-21T11:56:56.712Z,99785.09
2022-11-21T11:59:29.804Z,99786.66
2022-11-21T12:02:06.312Z,99788.25
2022-11-21T12:04:45.450Z,99782.69
2022-11-21T12:10:16.279Z,99769.50
2022-11-21T12:12:50.201Z,99763.66
2022-11-21T12:15:39.778Z,99759.63
2022-11-21T12:18:17.254Z,99758.50
2022-11-21T12:20:55.446Z,99744.19
2022-11-21T12:23:25.348Z,99738.31
2022-11-21T12:26:04.568Z,99741.03
2022-11-21T12:28:42.373Z,99726.00
2022-11-21T12:31:15.711Z,99722.69
2022-11-21T12:33:51.660Z,99726.56
2022-11-21T12:36:35.335Z,99714.22
2022-11-21T12:39:46.176Z,99710.50
2022-11-21T12:42:39.319Z,99710.34
2022-11-21T12:45:27.356Z,99700.72
2022-11-21T12:48:29.744Z,99694.69
2022-11-21T12:51:31.690Z,99690.81
2022-11-21T12:54:24.178Z,99688.84
2022-11-21T12:57:00.905Z,99686.13
2022-11-21T12:59:32.078Z,99683.25
2022-11-21T13:02:08.435Z,99675.06
2022-11-21T13:04:39.482Z,99680.53
2022-11-21T13:07:08.540Z,99676.06
2022-11-21T13:09:41.158Z,99674.22
2022-11-21T13:12:16.394Z,99667.19
2022-11-21T13:14:52.767Z,99663.56
2022-11-21T13:17:30.427Z,99666.28
2022-11-21T13:20:01.375Z,99659.09
2022-11-21T13:22:52.006Z,99652.94
2022-11-21T13:25:47.691Z,99644.09
2022-11-21T13:28:34.749Z,99640.50
2022-11-21T13:31:04.900Z,99631.47
2022-11-21T13:33:51.146Z,99636.91
2022-11-21T13:36:40.224Z,99617.13
2022-11-21T13:39:39.297Z,99619.44
2022-11-21T13:45:39.196Z,99604.09
2022-11-21T13:48:38.784Z,99596.06
2022-11-21T13:51:29.915Z,99583.31
2022-11-21T13:54:15.957Z,99579.72
2022-11-21T13:57:04.062Z,99564.38
2022-11-21T14:00:00.072Z,99568.81
2022-11-21T14:02:50.738Z,99551.75
2022-11-21T14:05:33.313Z,99546.31
2022-11-21T14:08:15.189Z,99529.25
2022-11-21T14:10:46.717Z,99536.59
2022-11-21T14:13:24.695Z,99527.25
2022-11-21T14:16:09.403Z,99524.50
2022-11-21T14:18:39.998Z,99521.06
2022-11-21T14:21:09.205Z,99520.25
2022-11-21T14:23:44.164Z,99515.63
2022-11-21T14:26:15.954Z,99505.75
2022-11-21T14:28:43.990Z,99505.91
2022-11-21T14:31:14.625Z,99487.69
2022-11-21T14:33:43.693Z,99486.84
2022-11-21T14:36:15.597Z,99484.13
2022-11-21T14:38:47.068Z,99477.25
2022-11-21T14:41:29.902Z,99486.13
2022-11-21T14:44:16.593Z,99483.88
2022-11-21T14:46:47.459Z,99483.00
2022-11-21T14:49:24.894Z,99473.13
2022-11-21T14:51:59.527Z,99465.25
2022-11-21T14:54:31.257Z,99451.94
2022-11-21T14:57:01.290Z,99444.06
2022-11-21T14:59:32.042Z,99427.88
2022-11-21T15:02:03.958Z,99425.28
2022-11-21T15:04:34.418Z,99433.06
2022-11-21T15:07:03.210Z,99434.94
2022-11-21T15:10:26.694Z,99424.31
2022-11-21T15:12:29.829Z,99405.41
2022-11-21T15:15:01.994Z,99392.97
2022-11-21T15:17:31.714Z,99392.41
2022-11-21T15:20:11.611Z,99390.69
2022-11-21T15:22:42.263Z,99378.41
2022-11-21T15:25:17.047Z,99364.78
2022-11-21T15:27:47.206Z,99374.25
2022-11-21T15:30:25.512Z,99368.81
2022-11-21T15:33:09.444Z,99352.94
2022-11-21T15:35:51.786Z,99348.66
2022-11-21T15:38:32.054Z,99358.13
2022-11-21T15:41:24.095Z,99352.97
2022-11-21T15:43:53.846Z,99365.00
2022-11-21T15:46:23.561Z,99355.13
2022-11-21T15:48:54.436Z,99360.56
2022-11-21T15:51:51.385Z,99362.63
2022-11-21T15:54:15.123Z,99357.47
2022-11-21T15:56:42.931Z,99341.41
2022-11-21T15:59:11.477Z,99349.59
2022-11-21T16:01:39.498Z,99347.19
2022-11-21T16:04:10.922Z,99339.88
2022-11-21T16:06:38.826Z,99335.59
2022-11-21T16:09:06.879Z,99333.88
2022-11-21T16:11:37.286Z,99329.44
2022-11-21T16:14:07.109Z,99325.00
2022-11-21T16:16:42.697Z,99325.84
2022-11-21T16:19:13.695Z,99328.75
2022-11-21T16:21:42.161Z,99324.44
2022-11-21T16:24:12.550Z,99314.44
2022-11-21T16:26:40.401Z,99309.84
2022-11-21T16:29:08.291Z,99304.53
2022-11-21T16:31:36.208Z,99305.56
2022-11-21T16:34:04.138Z,99304.69
2022-11-21T16:36:33.658Z,99303.69
2022-11-21T16:39:08.868Z,99289.38
2022-11-21T16:41:39.374Z,99277.81
2022-11-21T16:44:13.634Z,99274.06
2022-11-21T16:46:44.392Z,99266.06
2022-11-21T16:49:12.371Z,99252.75
2022-11-21T16:51:41.586Z,99248.31
2022-11-21T16:54:09.886Z,99237.44
2022-11-21T16:56:38.100Z,99230.28
2022-11-21T16:59:06.053Z,99224.31
2022-11-21T17:01:34.075Z,99207.13
2022-11-21T17:04:02.127Z,99204.56
2022-11-21T17:06:31.710Z,99206.56
2022-11-21T17:09:02.299Z,99194.13
2022-11-21T17:11:31.964Z,99196.16
2022-11-21T17:14:03.464Z,99199.03
2022-11-21T17:16:31.893Z,99192.88
2022-11-21T17:19:01.030Z,99192.16
2022-11-21T17:21:29.986Z,99217.50
2022-11-21T17:23:58.112Z,99213.06
2022-11-21T17:26:30.285Z,99212.91
2022-11-21T17:29:00.006Z,99205.94
2022-11-21T17:31:28.637Z,99208.47
2022-11-21T17:33:58.005Z,99198.59
2022-11-21T17:36:28.000Z,99192.16
2022-11-21T17:38:56.105Z,99192.16
2022-11-21T17:41:26.063Z,99189.28
2022-11-21T17:43:56.934Z,99168.41
2022-11-21T17:46:26.280Z,99171.13
2022-11-21T17:48:58.074Z,99165.69
2022-11-21T17:51:28.831Z,99172.13
2022-11-21T17:53:57.313Z,99184.72
2022-11-21T17:56:27.525Z,99190.00
2022-11-21T17:58:56.913Z,99177.28
2022-11-21T18:01:25.028Z,99174.56
2022-11-21T18:03:56.145Z,99179.00
2022-11-21T18:06:24.780Z,99181.69
2022-11-21T18:08:52.800Z,99186.28
2022-11-21T18:11:39.282Z,99175.25
2022-11-21T18:14:08.743Z,99162.81
2022-11-21T18:16:37.236Z,99169.25
2022-11-21T18:19:05.078Z,99190.16
2022-11-21T18:21:35.444Z,99196.59
2022-11-21T18:24:03.691Z,99183.16
2022-11-21T18:26:34.789Z,99177.88
2022-11-21T18:31:53.340Z,99166.41
2022-11-21T18:34:21.266Z,99163.56
2022-11-21T18:36:49.071Z,99149.13
2022-11-21T18:39:16.843Z,99147.13
2022-11-21T18:41:47.179Z,99153.09
2022-11-21T18:44:21.294Z,99149.38
2022-11-21T18:46:49.905Z,99146.34
2022-11-21T18:49:18.252Z,99141.59
2022-11-21T18:51:46.236Z,99133.28
2022-11-21T18:54:14.058Z,99134.28
2022-11-21T18:56:42.199Z,99121.41
2022-11-21T18:59:14.419Z,99119.56
2022-11-21T19:01:42.399Z,99113.41
2022-11-21T19:04:10.384Z,99107.97
2022-11-21T19:06:38.258Z,99109.81
2022-11-21T19:09:06.129Z,99099.97
2022-11-21T19:11:34.027Z,99101.00
2022-11-21T19:14:02.011Z,99091.13
2022-11-21T19:16:34.104Z,99090.97
2022-11-21T19:21:50.477Z,99076.09
2022-11-21T19:24:19.445Z,99081.53
2022-11-21T19:26:50.364Z,99079.81
2022-11-21T19:29:18.795Z,99083.41
2022-11-21T19:31:48.011Z,99070.81
2022-11-21T19:34:16.566Z,99068.28
2022-11-21T19:36:45.894Z,99068.28
2022-11-21T19:39:14.265Z,99060.13
2022-11-21T19:41:42.389Z,99053.97
2022-11-21T19:44:11.411Z,99058.66
2022-11-21T19:46:40.697Z,99056.69
2022-11-21T19:49:11.970Z,99058.41
2022-11-21T19:51:41.680Z,99057.53
2022-11-21T19:54:11.987Z,99059.41
2022-11-21T19:56:40.496Z,99063.09
2022-11-21T19:59:08.696Z,99052.97
2022-11-21T20:01:36.559Z,99046.78
2022-11-21T20:04:06.033Z,99045.66
2022-11-21T20:06:36.823Z,99034.78
2022-11-21T20:09:07.937Z,99034.94
2022-11-21T20:11:36.627Z,99023.06
2022-11-21T20:14:04.919Z,99023.06
2022-11-21T20:16:34.528Z,99015.75
2022-11-21T20:19:04.506Z,99008.47
2022-11-21T20:21:32.528Z,98996.72
2022-11-21T20:24:01.899Z,98989.25
2022-11-21T20:26:29.894Z,98981.28
2022-11-21T20:28:58.142Z,98977.56
2022-11-21T20:31:28.159Z,98972.94
2022-11-21T20:33:58.189Z,98970.41
2022-11-21T20:36:27.701Z,98970.06
2022-11-21T20:38:57.009Z,98967.69
2022-11-21T20:41:28.252Z,98961.06
2022-11-21T20:46:48.077Z,98959.03
2022-11-21T20:49:16.632Z,98951.03
2022-11-21T20:54:33.188Z,98952.22
2022-11-21T20:57:02.642Z,98960.03
2022-11-21T20:59:30.619Z,98964.63
2022-11-21T21:01:58.673Z,98960.19
2022-11-21T21:04:27.044Z,98962.75
2022-11-21T21:06:54.887Z,98943.72
2022-11-21T21:09:22.760Z,98944.59
2022-11-21T21:11:52.506Z,98936.44
2022-11-21T21:14:22.442Z,98926.56
2022-11-21T21:16:50.658Z,98932.16
2022-11-21T21:19:19.008Z,98928.28
2022-11-21T21:21:46.859Z,98934.72
2022-11-21T21:24:15.978Z,98925.56
2022-11-21T21:26:46.623Z,98937.44
2022-11-21T21:29:18.462Z,98934.72
2022-11-21T21:31:51.731Z,98931.84
2022-11-21T21:34:20.722Z,98921.97
2022-11-21T21:36:48.965Z,98919.41
2022-11-21T21:39:16.853Z,98930.47
2022-11-21T21:41:46.647Z,98926.56
2022-11-21T21:44:16.230Z,98922.13
2022-11-21T21:46:44.364Z,98925.72
2022-11-21T21:49:13.751Z,98921.13
2022-11-21T21:51:41.997Z,98924.00
2022-11-21T21:54:16.843Z,98923.69
2022-11-21T21:56:46.519Z,98918.56
2022-11-21T21:59:15.019Z,98917.56
2022-11-21T22:01:43.760Z,98913.97
2022-11-21T22:04:13.533Z,98911.09
2022-11-21T22:06:41.754Z,98913.97
2022-11-21T22:09:09.745Z,98912.13
2022-11-21T22:11:39.639Z,98923.16
2022-11-21T22:14:11.537Z,98913.97
2022-11-21T22:16:39.839Z,98911.59
2022-11-21T22:19:07.923Z,98917.72
2022-11-21T22:21:38.767Z,98912.13
2022-11-21T22:24:28.743Z,98912.97
2022-11-21T22:26:56.930Z,98902.59
2022-11-21T22:29:24.775Z,98907.16
2022-11-21T22:31:52.783Z,98899.88
2022-11-21T22:34:20.592Z,98900.72
2022-11-21T22:36:50.059Z,98887.25
2022-11-21T22:39:18.148Z,98889.09
2022-11-21T22:41:46.440Z,98889.25
2022-11-21T22:44:14.324Z,98877.53
2022-11-21T22:46:42.170Z,98882.09
2022-11-21T22:49:09.999Z,98875.81
2022-11-21T22:51:37.940Z,98876.69
2022-11-21T22:54:07.216Z,98880.25
2022-11-21T22:56:35.069Z,98877.69
2022-11-21T22:59:03.160Z,98873.44
2022-11-21T23:01:33.222Z,98870.72
2022-11-21T23:04:01.386Z,98874.28
2022-11-21T23:06:29.228Z,98882.28
2022-11-21T23:08:58.028Z,98877.88
2022-11-21T23:11:28.746Z,98877.69
2022-11-21T23:13:57.515Z,98880.41
2022-11-21T23:16:26.513Z,98879.38
2022-11-21T23:18:55.060Z,98871.56
2022-11-21T23:21:23.239Z,98873.28
2022-11-21T23:23:51.212Z,98876.16
2022-11-21T23:26:19.234Z,98879.72
2022-11-21T23:28:48.497Z,98872.44
2022-11-21T23:31:16.387Z,98870.72
2022-11-21T23:33:44.223Z,98874.44
2022-11-21T23:36:12.162Z,98874.59
2022-11-21T23:38:40.029Z,98865.88
2022-11-21T23:41:07.806Z,98872.19
2022-11-21T23:43:35.702Z,98868.59
2022-11-21T23:46:05.224Z,98862.34
2022-11-21T23:48:32.987Z,98863.34
2022-11-21T23:51:00.771Z,98862.50
2022-11-21T23:53:28.624Z,98860.94
2022-11-21T23:55:56.394Z,98870.81
2022-11-21T23:58:24.182Z,98874.53
